Time;durP1;ratioP1;P1;durP2;ratioP2;P2;SDS_P1;SDS_P2;PMS_P1;PMS_P2;Temp;Humidity;BMP_temperature;BMP_pressure;BME280_temperature;BME280_humidity;BME280_pressure;Samples;Min_cycle;Max_cycle;Signal;HPM_P1;HPM_P2
2021/07/25 00:02:19;;;;;;;31.57;16.35;;;;;;;15.92;100.00;99587.12;1804851;79;21431;-75
2021/07/25 00:04:49;;;;;;;30.20;13.90;;;;;;;15.95;100.00;99587.00;1804494;79;21525;-75
2021/07/25 00:07:19;;;;;;;22.85;12.93;;;;;;;15.98;100.00;99583.53;1804842;79;21222;-75
2021/07/25 00:09:51;;;;;;;27.85;14.73;;;;;;;16.02;100.00;99582.48;1803856;79;20864;-75
2021/07/25 00:12:24;;;;;;;29.90;13.43;;;;;;;16.06;100.00;99589.50;1804754;79;20989;-72
2021/07/25 00:14:53;;;;;;;27.58;13.83;;;;;;;16.08;100.00;99594.92;1804323;79;21418;-74
2021/07/25 00:17:24;;;;;;;29.95;13.53;;;;;;;16.09;100.00;99590.99;1804808;79;20916;-73
2021/07/25 00:19:56;;;;;;;34.63;14.33;;;;;;;16.07;100.00;99590.54;1804355;79;20954;-73
2021/07/25 00:22:25;;;;;;;25.48;13.40;;;;;;;16.06;100.00;99589.50;1804496;79;21605;-74
2021/07/25 00:25:56;;;;;;;28.90;14.38;;;;;;;16.06;100.00;99589.50;1804579;79;21457;-73
2021/07/25 00:27:46;;;;;;;29.95;14.10;;;;;;;16.07;100.00;99588.34;1787098;79;20991;-73
2021/07/25 00:30:18;;;;;;;26.82;14.65;;;;;;;16.10;100.00;99580.73;1799386;79;20872;-73
2021/07/25 00:32:50;;;;;;;28.92;13.93;;;;;;;16.12;100.00;99575.64;1804293;78;20919;-74
2021/07/25 00:35:25;;;;;;;23.47;12.28;;;;;;;16.12;100.00;99570.91;1773181;79;21541;-73
2021/07/25 00:37:55;;;;;;;25.75;12.65;;;;;;;16.14;100.00;99574.71;1799456;79;20962;-73
2021/07/25 00:40:48;;;;;;;23.92;13.03;;;;;;;16.14;100.00;99576.90;1773426;79;20947;-73
2021/07/25 00:43:29;;;;;;;21.25;12.53;;;;;;;16.15;100.00;99575.74;1803597;79;20967;-72
2021/07/25 00:45:57;;;;;;;27.60;13.13;;;;;;;16.15;100.00;99586.02;1799100;79;20872;-72
2021/07/25 00:48:29;;;;;;;26.90;13.00;;;;;;;16.12;100.00;99586.14;1752318;81;20923;-72
2021/07/25 00:50:59;;;;;;;33.00;13.85;;;;;;;16.10;100.00;99580.73;1761240;81;21222;-72
2021/07/25 00:53:34;;;;;;;26.87;13.70;;;;;;;16.11;100.00;99576.80;1761486;81;21404;-73
2021/07/25 00:56:11;;;;;;;26.95;13.68;;;;;;;16.12;100.00;99577.02;1760510;81;20993;-73
2021/07/25 00:58:43;;;;;;;32.40;15.85;;;;;;;16.14;100.00;99584.41;1761295;80;21407;-72
2021/07/25 01:01:14;;;;;;;40.88;16.02;;;;;;;16.18;100.00;99581.13;1761305;81;20911;-73
2021/07/25 01:04:26;;;;;;;31.52;14.18;;;;;;;16.23;100.00;99591.95;1761558;81;23237;-75
2021/07/25 01:07:20;;;;;;;32.23;13.43;;;;;;;16.26;100.00;99589.06;1761248;81;20939;-73
2021/07/25 01:10:19;;;;;;;31.87;13.83;;;;;;;16.30;100.00;99588.58;1761476;81;20938;-73
2021/07/25 01:13:11;;;;;;;29.92;13.75;;;;;;;16.33;100.00;99589.27;1760576;81;20884;-73
2021/07/25 01:15:45;;;;;;;30.57;13.72;;;;;;;16.34;100.00;99589.48;1740280;81;20911;-73
2021/07/25 01:18:22;;;;;;;23.15;12.35;;;;;;;16.34;100.00;99586.72;1717740;81;20884;-73
2021/07/25 01:20:55;;;;;;;30.23;12.90;;;;;;;16.30;100.00;99583.84;1761419;81;21109;-73
2021/07/25 01:23:30;;;;;;;23.20;12.53;;;;;;;16.32;100.00;99583.50;1786161;80;20868;-73
2021/07/25 01:25:58;;;;;;;23.73;13.08;;;;;;;16.33;100.00;99583.14;1770798;80;20904;-73
2021/07/25 01:28:36;;;;;;;26.30;13.05;;;;;;;16.33;100.00;99578.18;1796958;79;20915;-73
2021/07/25 01:31:12;;;;;;;26.23;12.53;;;;;;;16.34;100.00;99581.98;1791892;79;21090;-74
2021/07/25 01:33:41;;;;;;;24.75;12.58;;;;;;;16.35;100.00;99582.21;1792553;79;21391;-74
2021/07/25 01:36:12;;;;;;;26.80;13.72;;;;;;;16.36;100.00;99578.28;1792337;79;20903;-74
2021/07/25 01:38:43;;;;;;;29.98;13.00;;;;;;;16.35;100.00;99585.56;1792718;79;20880;-74
2021/07/25 01:41:16;;;;;;;24.70;12.90;;;;;;;16.30;100.00;99585.23;1770589;80;21011;-73
2021/07/25 01:43:45;;;;;;;21.95;12.00;;;;;;;16.30;100.00;99584.42;1792702;80;21127;-73
2021/07/25 01:46:16;;;;;;;29.77;11.68;;;;;;;16.29;100.00;99582.23;1770862;80;21512;-73
2021/07/25 01:48:45;;;;;;;25.27;14.00;;;;;;;16.28;100.00;99578.44;1791787;79;21004;-73
2021/07/25 01:51:16;;;;;;;28.35;13.10;;;;;;;16.29;100.00;99585.59;1774922;79;20927;-73
2021/07/25 01:53:48;;;;;;;;;;;;;;;16.29;100.00;99585.01;1764166;81;21494;-73
2021/07/25 01:56:28;;;;;;;25.15;13.20;;;;;;;16.29;100.00;99578.08;1739143;81;20674;-73
2021/07/25 01:58:59;;;;;;;21.20;11.80;;;;;;;16.29;100.00;99584.20;1761522;81;21469;-73
2021/07/25 02:01:41;;;;;;;25.72;11.83;;;;;;;16.28;100.00;99581.20;1740118;81;20842;-76
2021/07/25 02:04:07;;;;;;;35.00;12.30;;;;;;;16.28;100.00;99585.36;1738697;81;21005;-72
2021/07/25 02:06:37;;;;;;;35.05;12.23;;;;;;;16.27;100.00;99587.33;1761448;81;20978;-72
2021/07/25 02:09:12;;;;;;;43.02;13.48;;;;;;;16.27;100.00;99592.86;1779523;80;21819;-72
2021/07/25 02:11:48;;;;;;;24.10;12.70;;;;;;;16.26;100.00;99589.06;1739120;81;20864;-73
2021/07/25 02:14:17;;;;;;;32.63;14.15;;;;;;;16.25;100.00;99589.64;1767345;80;20925;-73
2021/07/25 02:16:55;;;;;;;33.67;13.83;;;;;;;16.25;100.00;99589.64;1710718;83;20928;-72
2021/07/25 02:19:22;;;;;;;40.55;14.73;;;;;;;16.20;100.00;99588.50;1761610;81;20982;-71
2021/07/25 02:21:50;;;;;;;33.05;14.00;;;;;;;16.19;100.00;99595.20;1761036;81;21130;-71
2021/07/25 02:24:25;;;;;;;28.05;13.05;;;;;;;16.18;100.00;99598.55;1760692;81;21442;-71
2021/07/25 02:26:56;;;;;;;34.23;12.98;;;;;;;16.15;100.00;99590.97;1736930;81;21368;-71
2021/07/25 02:29:24;;;;;;;31.00;13.60;;;;;;;16.14;100.00;99595.48;1761356;81;21383;-72
2021/07/25 02:31:55;;;;;;;34.13;13.35;;;;;;;16.13;100.00;99598.83;1739577;81;20836;-72
2021/07/25 02:34:23;;;;;;;41.63;13.83;;;;;;;16.15;100.00;99598.48;1755123;81;21137;-72
2021/07/25 02:36:53;;;;;;;25.40;13.10;;;;;;;16.16;100.00;99600.09;1739630;81;21569;-72
2021/07/25 02:39:20;;;;;;;30.57;12.73;;;;;;;16.18;100.00;99601.31;1761470;81;20915;-72
2021/07/25 02:41:52;;;;;;;30.77;12.82;;;;;;;16.21;100.00;99599.81;1761481;81;20871;-72
2021/07/25 02:44:24;;;;;;;23.50;12.68;;;;;;;16.26;100.00;99597.37;1761407;81;20895;-72
2021/07/25 02:46:55;;;;;;;32.42;13.15;;;;;;;16.30;100.00;99604.63;1760724;81;21068;-71
2021/07/25 02:49:23;;;;;;;24.80;12.30;;;;;;;16.35;100.00;99608.53;1758444;81;21439;-71
2021/07/25 02:51:51;;;;;;;30.88;12.60;;;;;;;16.40;100.00;99604.13;1755574;81;20836;-71
2021/07/25 02:54:18;;;;;;;31.30;12.60;;;;;;;16.47;100.00;99607.67;1756581;81;20927;-72
2021/07/25 02:56:52;;;;;;;26.93;11.85;;;;;;;16.51;100.00;99603.03;1756836;81;20876;-71
2021/07/25 02:59:22;;;;;;;29.77;14.47;;;;;;;16.54;100.00;99610.64;1756627;81;21142;-71
2021/07/25 03:01:54;;;;;;;25.45;12.40;;;;;;;16.58;100.00;99604.63;1756481;81;21400;-71
2021/07/25 03:04:26;;;;;;;25.30;13.62;;;;;;;16.64;100.00;99616.25;1735555;81;20888;-71
2021/07/25 03:07:00;;;;;;;21.77;12.05;;;;;;;16.68;100.00;99609.68;1756557;81;20912;-71
2021/07/25 03:09:37;;;;;;;26.42;13.72;;;;;;;16.73;100.00;99611.39;1756558;81;20880;-71
2021/07/25 03:12:09;;;;;;;32.23;12.85;;;;;;;16.81;100.00;99617.32;1735516;81;20916;-71
2021/07/25 03:14:40;;;;;;;35.13;12.85;;;;;;;16.89;100.00;99608.61;1735509;81;21510;-71
2021/07/25 03:17:16;;;;;;;32.08;12.70;;;;;;;16.97;100.00;99610.41;1756455;81;20899;-71
2021/07/25 03:19:50;;;;;;;25.62;13.80;;;;;;;17.05;100.00;99617.75;1756463;81;20983;-73
2021/07/25 03:22:28;;;;;;;35.23;13.80;;;;;;;17.14;100.00;99616.41;1735451;81;21364;-72
2021/07/25 03:25:01;;;;;;;26.80;13.65;;;;;;;17.23;100.00;99619.02;1718156;81;21121;-73
2021/07/25 03:27:36;;;;;;;25.68;12.23;;;;;;;17.33;100.00;99622.60;1735309;81;20875;-72
2021/07/25 03:30:07;;;;;;;24.40;12.70;;;;;;;17.43;100.00;99623.45;1756211;81;21482;-73
2021/07/25 03:32:40;;;;;;;26.82;13.88;;;;;;;17.53;100.00;99624.88;1756519;80;20927;-73
2021/07/25 03:35:13;;;;;;;21.55;13.08;;;;;;;17.63;100.00;99627.09;1756733;81;20967;-74
2021/07/25 03:37:45;;;;;;;19.65;13.40;;;;;;;17.75;100.00;99634.55;1756607;81;20915;-74
2021/07/25 03:40:19;;;;;;;24.60;13.32;;;;;;;17.86;100.00;99638.38;1756452;81;20928;-74
2021/07/25 03:42:52;;;;;;;21.62;13.35;;;;;;;17.98;98.60;99637.42;1740834;80;20959;-77
2021/07/25 03:45:23;;;;;;;22.95;11.97;;;;;;;18.10;97.40;99644.23;1762002;80;20935;-77
2021/07/25 03:47:54;;;;;;;23.07;12.60;;;;;;;18.22;96.50;99644.11;1755966;81;21038;-77
2021/07/25 03:50:22;;;;;;;23.62;12.33;;;;;;;18.33;95.57;99642.95;1740542;81;21137;-76
2021/07/25 03:52:58;;;;;;;22.85;13.03;;;;;;;18.45;94.70;99643.61;1764490;80;20987;-77
2021/07/25 03:55:24;;;;;;;22.80;11.88;;;;;;;18.58;94.10;99647.59;1785337;80;21031;-75
2021/07/25 03:57:53;;;;;;;19.12;12.30;;;;;;;18.72;94.00;99647.91;1795113;80;21020;-76
2021/07/25 04:00:26;;;;;;;23.42;11.57;;;;;;;18.85;93.80;99648.55;1794989;80;21522;-76
2021/07/25 04:02:53;;;;;;;25.72;12.80;;;;;;;18.96;94.05;99650.95;1793628;79;21918;-77
2021/07/25 04:05:26;;;;;;;18.82;11.45;;;;;;;19.07;94.60;99649.14;1795484;79;22420;-76
2021/07/25 04:08:02;;;;;;;22.58;12.18;;;;;;;19.16;93.41;99651.09;1773763;80;20911;-75
2021/07/25 04:10:44;;;;;;;27.80;12.07;;;;;;;19.25;91.10;99652.24;1794432;79;20976;-74
2021/07/25 04:13:15;;;;;;;24.77;12.73;;;;;;;19.38;89.33;99652.27;1792654;79;21482;-76
2021/07/25 04:15:47;;;;;;;18.77;11.50;;;;;;;19.49;89.70;99654.65;1784309;80;21002;-76
2021/07/25 04:18:22;;;;;;;19.27;11.60;;;;;;;19.65;89.53;99655.91;1742517;78;21009;-75
2021/07/25 04:20:58;;;;;;;21.80;11.55;;;;;;;19.79;87.97;99651.36;1762781;81;21023;-75
2021/07/25 04:23:31;;;;;;;16.65;11.45;;;;;;;19.91;87.46;99651.73;1763946;81;20993;-75
2021/07/25 04:26:04;;;;;;;17.37;12.70;;;;;;;20.05;86.79;99653.92;1805702;79;20921;-71
2021/07/25 04:28:33;;;;;;;17.95;13.18;;;;;;;20.19;85.25;99652.73;1805334;79;21228;-74
2021/07/25 04:31:04;;;;;;;21.17;13.08;;;;;;;20.30;83.04;99646.67;1823064;78;21641;-73
2021/07/25 04:33:34;;;;;;;18.20;12.73;;;;;;;20.45;81.71;99657.45;1805465;79;20980;-73
2021/07/25 04:36:24;;;;;;;16.85;11.60;;;;;;;20.55;81.65;99655.39;1785247;79;21367;-71
2021/07/25 04:38:46;;;;;;;18.70;12.10;;;;;;;20.67;80.38;99649.56;1785005;79;21534;-72
2021/07/25 04:41:15;;;;;;;14.58;11.57;;;;;;;20.80;79.57;99654.27;1805808;79;21098;-72
2021/07/25 04:43:46;;;;;;;14.00;11.05;;;;;;;20.93;78.57;99654.80;1805419;79;20960;-76
2021/07/25 04:46:29;;;;;;;17.05;10.68;;;;;;;21.02;77.34;99656.09;1805744;79;21477;-74
2021/07/25 04:49:17;;;;;;;16.82;10.80;;;;;;;21.13;76.62;99656.80;1771343;79;21017;-76
2021/07/25 04:51:51;;;;;;;18.65;10.68;;;;;;;21.24;76.40;99661.33;1784111;79;20977;-74
2021/07/25 04:54:23;;;;;;;18.27;10.53;;;;;;;21.35;75.73;99670.61;1830007;78;20893;-77
2021/07/25 04:57:03;;;;;;;19.90;11.18;;;;;;;21.46;75.25;99671.27;1838229;78;21405;-72
2021/07/25 04:59:51;;;;;;;14.47;9.85;;;;;;;21.56;75.94;99675.55;1837488;77;20854;-73
2021/07/25 05:02:25;;;;;;;18.15;10.82;;;;;;;21.68;75.52;99675.86;1838331;77;20918;-73
2021/07/25 05:04:57;;;;;;;21.33;10.63;;;;;;;21.74;74.22;99675.11;1838004;77;20870;-73
2021/07/25 05:07:27;;;;;;;16.35;10.90;;;;;;;21.81;73.78;99675.76;1816530;78;20910;-81
2021/07/25 05:10:03;;;;;;;15.60;10.25;;;;;;;21.86;72.42;99679.59;1825550;78;21470;-72
2021/07/25 05:12:39;;;;;;;18.82;10.50;;;;;;;21.85;72.05;99678.58;1805958;79;20864;-71
2021/07/25 05:15:14;;;;;;;16.45;11.53;;;;;;;21.86;72.47;99680.19;1805440;79;20912;-77
2021/07/25 05:17:58;;;;;;;15.98;10.38;;;;;;;21.91;72.47;99678.42;1791201;79;20856;-75
2021/07/25 05:20:57;;;;;;;14.23;10.32;;;;;;;21.98;71.88;99684.03;1805162;79;22101;-79
2021/07/25 05:23:48;;;;;;;19.02;10.03;;;;;;;22.03;72.03;99677.52;1785119;79;20907;-75
2021/07/25 05:26:28;;;;;;;13.22;9.48;;;;;;;22.11;70.32;99678.36;1805135;79;20924;-73
2021/07/25 05:29:05;;;;;;;18.27;10.15;;;;;;;22.19;69.75;99676.41;1785211;79;20892;-72
2021/07/25 05:31:35;;;;;;;21.00;10.47;;;;;;;22.24;70.79;99681.04;1805663;79;20868;-75
2021/07/25 05:34:05;;;;;;;13.55;9.80;;;;;;;22.31;70.29;99688.07;1804539;79;21110;-76
2021/07/25 05:36:33;;;;;;;15.25;10.65;;;;;;;22.37;68.58;99680.91;1811527;79;21784;-76
2021/07/25 05:39:01;;;;;;;16.90;10.38;;;;;;;22.43;68.30;99688.94;1805223;79;20911;-75
2021/07/25 05:41:31;;;;;;;13.40;10.50;;;;;;;22.47;68.72;99684.95;1805353;79;20896;-75
2021/07/25 05:43:59;;;;;;;18.32;9.48;;;;;;;22.51;68.87;99684.98;1785304;79;20932;-71
2021/07/25 05:46:28;;;;;;;18.17;11.08;;;;;;;22.58;69.64;99686.38;1823159;76;21501;-77
2021/07/25 05:48:56;;;;;;;14.23;10.30;;;;;;;22.69;69.62;99690.02;1827558;78;20960;-75
2021/07/25 05:51:25;;;;;;;19.90;11.15;;;;;;;22.79;69.62;99682.30;1827526;77;21003;-82
2021/07/25 05:53:51;;;;;;;19.87;10.43;;;;;;;22.90;67.91;99683.14;1829492;76;20895;-77
2021/07/25 05:56:17;;;;;;;18.67;10.75;;;;;;;23.03;67.50;99680.17;1833507;76;20877;-78
2021/07/25 05:58:47;;;;;;;23.27;10.90;;;;;;;23.15;68.09;99673.97;1817588;77;21091;-83
2021/07/25 06:01:16;;;;;;;17.00;11.05;;;;;;;23.24;68.33;99672.39;1810371;79;21464;-82
2021/07/25 06:03:45;;;;;;;14.53;10.55;;;;;;;23.33;67.59;99674.20;1788307;77;20881;-81
2021/07/25 06:06:14;;;;;;;15.05;9.70;;;;;;;23.42;67.51;99673.81;1820651;77;20909;-80
2021/07/25 06:08:49;;;;;;;16.77;10.60;;;;;;;23.46;65.55;99676.02;1820995;77;20984;-83
2021/07/25 06:11:26;;;;;;;14.18;9.28;;;;;;;23.54;64.60;99676.25;1793674;77;20882;-90
2021/07/25 06:14:00;;;;;;;15.25;9.58;;;;;;;23.64;63.54;99671.85;1811647;77;21473;-81
2021/07/25 06:16:33;;;;;;;14.83;9.63;;;;;;;23.74;62.37;99670.22;1844096;77;20938;-79
2021/07/25 06:19:01;;;;;;;13.00;9.45;;;;;;;23.81;62.81;99671.62;1841488;77;20866;-78
2021/07/25 06:21:28;;;;;;;15.43;9.83;;;;;;;23.89;62.66;99673.21;1843962;77;20889;-87
2021/07/25 06:23:57;;;;;;;15.88;9.55;;;;;;;24.02;62.57;99678.60;1844247;77;22079;-78
2021/07/25 06:26:37;;;;;;;16.00;9.23;;;;;;;24.15;61.97;99681.19;1838767;77;20914;-77
2021/07/25 06:29:02;;;;;;;9.93;8.50;;;;;;;24.23;58.74;99681.36;1842245;77;20862;-76
2021/07/25 06:31:33;;;;;;;;;;;;;;;24.31;59.41;99684.35;1813365;77;20949;-76
2021/07/25 06:34:02;;;;;;;13.50;7.67;;;;;;;24.38;58.34;99686.34;1843326;77;20130;-76
2021/07/25 06:36:29;;;;;;;17.05;7.62;;;;;;;24.42;58.30;99690.53;1842112;77;21508;-78
2021/07/25 06:39:03;;;;;;;14.05;8.00;;;;;;;24.45;56.06;99687.72;1832160;76;20873;-77
2021/07/25 06:41:30;;;;;;;10.05;7.55;;;;;;;24.53;56.70;99691.30;1825914;77;20943;-84
2021/07/25 06:44:01;;;;;;;10.48;7.45;;;;;;;24.59;54.39;99695.29;1830175;77;20936;-78
2021/07/25 06:46:34;;;;;;;16.02;7.67;;;;;;;24.68;55.08;99694.25;1800033;78;20912;-76
2021/07/25 06:49:08;;;;;;;14.65;7.58;;;;;;;24.80;53.61;99692.40;1733685;81;20968;-77
2021/07/25 06:51:37;;;;;;;12.73;7.58;;;;;;;24.94;52.73;99697.12;1754496;80;20901;-89
2021/07/25 06:54:05;;;;;;;9.45;7.53;;;;;;;25.07;53.58;99704.51;1732433;82;21508;-86
2021/07/25 06:56:32;;;;;;;10.28;7.08;;;;;;;25.14;54.27;99698.84;1753267;81;20893;-78
2021/07/25 06:59:02;;;;;;;11.33;7.22;;;;;;;25.24;53.28;99703.00;1749491;81;21088;-80
2021/07/25 07:01:37;;;;;;;;;;;;;;;25.30;52.42;99699.16;1742628;82;20873;-76
2021/07/25 07:04:03;;;;;;;10.25;6.87;;;;;;;25.29;52.22;99696.95;1769576;81;20120;-88
2021/07/25 07:06:35;;;;;;;11.68;7.03;;;;;;;25.30;51.44;99700.55;1731575;82;21428;-81
2021/07/25 07:09:06;;;;;;;12.03;8.10;;;;;;;25.31;51.13;99700.75;1807549;78;20983;-81
2021/07/25 07:11:33;;;;;;;11.60;8.13;;;;;;;25.32;52.10;99692.52;1825773;78;20983;-82
2021/07/25 07:14:05;;;;;;;11.63;7.25;;;;;;;25.37;50.99;99696.90;1823683;78;21596;-83
2021/07/25 07:16:40;;;;;;;13.40;7.55;;;;;;;25.37;52.55;99696.30;1818885;78;20909;-83
2021/07/25 07:19:14;;;;;;;10.65;7.03;;;;;;;25.40;53.04;99694.06;1835868;78;20993;-90
2021/07/25 07:21:45;;;;;;;8.73;6.83;;;;;;;25.46;51.57;99695.80;1809985;77;20850;-85
2021/07/25 07:24:17;;;;;;;9.40;6.95;;;;;;;25.48;50.31;99692.77;1805633;79;20897;-85
2021/07/25 07:26:45;;;;;;;10.40;7.10;;;;;;;25.42;51.56;99695.83;1785342;79;21135;-81
2021/07/25 07:29:18;;;;;;;12.93;7.65;;;;;;;25.44;52.50;99697.63;1805379;79;21023;-87
2021/07/25 07:31:44;;;;;;;9.08;7.47;;;;;;;25.48;51.26;99695.59;1805058;79;20933;-81
2021/07/25 07:34:12;;;;;;;10.63;7.40;;;;;;;25.51;51.81;99692.55;1805321;79;20913;-80
2021/07/25 07:36:41;;;;;;;9.83;7.85;;;;;;;25.52;52.04;99693.55;1785254;79;20842;-87
2021/07/25 07:39:12;;;;;;;11.73;8.28;;;;;;;25.60;53.82;99699.30;1805628;79;21091;-85
2021/07/25 07:41:41;;;;;;;12.03;7.62;;;;;;;25.71;54.48;99701.27;1805408;79;20905;-85
2021/07/25 07:44:09;;;;;;;9.90;7.17;;;;;;;25.83;53.50;99693.73;1785261;79;20982;-82
2021/07/25 07:46:39;;;;;;;9.53;6.75;;;;;;;25.97;52.01;99694.41;1806546;76;21966;-89
2021/07/25 07:49:10;;;;;;;8.10;6.30;;;;;;;26.06;50.17;99697.31;1820335;78;21021;-86
2021/07/25 07:51:39;;;;;;;10.75;7.33;;;;;;;26.10;49.07;99703.70;1821432;77;21073;-85
2021/07/25 07:54:11;;;;;;;14.47;6.87;;;;;;;26.17;47.40;99697.40;1827336;77;20870;-88
2021/07/25 07:56:46;;;;;;;12.30;6.83;;;;;;;26.26;48.77;99699.72;1810915;79;20988;-84
2021/07/25 07:59:15;;;;;;;15.28;7.12;;;;;;;26.38;48.19;99704.05;1811277;79;20901;-83
2021/07/25 08:01:45;;;;;;;20.82;8.40;;;;;;;26.44;47.44;99708.00;1779703;79;20870;-84
2021/07/25 08:04:17;;;;;;;9.98;6.45;;;;;;;26.49;47.16;99705.53;1811161;79;21644;-87
2021/07/25 08:06:47;;;;;;;14.33;6.58;;;;;;;26.53;46.54;99699.86;1803172;79;21016;-85
2021/07/25 08:09:15;;;;;;;10.03;6.87;;;;;;;26.53;46.99;99703.47;1811190;79;20996;-88
2021/07/25 08:11:43;;;;;;;9.68;6.70;;;;;;;26.59;47.40;99698.16;1783073;78;21186;-85
2021/07/25 08:14:14;;;;;;;8.70;6.67;;;;;;;26.72;46.49;99700.61;1799699;78;20849;-87
2021/07/25 08:16:48;;;;;;;11.05;6.55;;;;;;;26.89;46.37;99698.17;1830972;78;21140;-84
2021/07/25 08:19:31;;;;;;;10.03;6.95;;;;;;;27.21;46.32;99708.21;1830490;78;20881;-84
2021/07/25 08:21:54;;;;;;;23.57;7.45;;;;;;;27.56;45.18;99699.23;1747746;81;20979;-85
2021/07/25 08:24:25;;;;;;;9.90;7.95;;;;;;;27.94;45.72;99702.63;1748829;80;20892;-83
2021/07/25 08:26:54;;;;;;;9.53;7.05;;;;;;;28.28;43.57;99708.70;1750812;82;20933;-79
2021/07/25 08:29:24;;;;;;;9.55;7.33;;;;;;;28.52;43.32;99709.43;1782040;80;21485;-80
2021/07/25 08:31:59;;;;;;;12.17;6.20;;;;;;;28.75;41.24;99706.54;1750936;82;20873;-80
2021/07/25 08:34:37;;;;;;;8.75;6.25;;;;;;;28.90;41.37;99714.10;1748828;80;20892;-82
2021/07/25 08:37:08;;;;;;;10.08;6.55;;;;;;;29.07;39.91;99714.95;1755453;80;21538;-80
2021/07/25 08:39:39;;;;;;;7.75;6.12;;;;;;;29.23;39.93;99712.17;1781580;78;21494;-79
2021/07/25 08:42:12;;;;;;;9.05;6.87;;;;;;;29.39;41.22;99715.03;1796789;78;21028;-78
2021/07/25 08:44:56;;;;;;;6.67;5.95;;;;;;;29.60;41.57;99717.97;1815399;79;20955;-81
2021/07/25 08:47:37;;;;;;;7.25;6.33;;;;;;;29.72;43.08;99715.06;1815166;79;20896;-83
2021/07/25 08:50:14;;;;;;;9.68;6.30;;;;;;;29.97;40.91;99708.16;1815156;79;20952;-83
2021/07/25 08:52:46;;;;;;;9.73;6.30;;;;;;;30.16;39.08;99705.84;1803036;79;20959;-78
2021/07/25 08:55:20;;;;;;;7.60;6.33;;;;;;;30.19;39.39;99709.20;1800451;79;21737;-78
2021/07/25 08:57:50;;;;;;;7.75;6.92;;;;;;;30.19;39.02;99710.61;1803785;79;21458;-82
2021/07/25 09:00:24;;;;;;;9.85;6.85;;;;;;;30.13;41.13;99706.73;1803756;79;21382;-79
2021/07/25 09:02:54;;;;;;;12.78;6.42;;;;;;;30.09;40.62;99709.47;1804508;79;20896;-80
2021/07/25 09:05:25;;;;;;;8.10;6.22;;;;;;;29.84;40.43;99708.70;1803675;79;20825;-77
2021/07/25 09:07:58;;;;;;;9.45;6.83;;;;;;;29.47;40.51;99707.97;1803713;79;21101;-80
2021/07/25 09:10:28;;;;;;;17.60;7.75;;;;;;;29.07;41.92;99711.51;1800891;79;20915;-79
2021/07/25 09:13:02;;;;;;;31.85;8.03;;;;;;;28.76;42.79;99713.78;1800818;78;20944;-81
2021/07/25 09:15:35;;;;;;;14.65;6.40;;;;;;;28.51;42.51;99710.05;1800979;79;20837;-80
2021/07/25 09:18:03;;;;;;;20.97;8.08;;;;;;;28.42;42.27;99709.81;1806329;77;20940;-75
2021/07/25 09:20:36;;;;;;;12.33;7.92;;;;;;;28.47;42.79;99712.75;1803529;78;21087;-81
2021/07/25 09:23:14;;;;;;;12.58;6.78;;;;;;;28.46;41.85;99717.61;1772009;80;20981;-79
2021/07/25 09:25:55;;;;;;;14.55;6.83;;;;;;;28.30;40.68;99711.09;1793937;80;20923;-82
2021/07/25 09:28:37;;;;;;;9.60;6.67;;;;;;;28.02;44.14;99720.84;1797777;79;21493;-80
2021/07/25 09:31:16;;;;;;;11.53;6.50;;;;;;;27.92;46.09;99722.00;1794541;80;21515;-78
2021/07/25 09:33:45;;;;;;;11.18;7.15;;;;;;;27.89;44.37;99724.89;1794432;80;21456;-80
2021/07/25 09:36:23;;;;;;;18.77;8.90;;;;;;;27.88;43.33;99726.91;1777637;78;20904;-80
2021/07/25 09:38:54;;;;;;;17.12;7.35;;;;;;;27.90;43.17;99721.64;1766460;79;20963;-78
2021/07/25 09:41:26;;;;;;;11.73;7.42;;;;;;;27.88;43.07;99724.70;1766830;81;20986;-78
2021/07/25 09:44:08;;;;;;;18.32;8.30;;;;;;;27.79;42.28;99727.27;1766978;81;20943;-78
2021/07/25 09:46:49;;;;;;;21.77;7.05;;;;;;;27.75;44.77;99733.58;1787769;77;21153;-79
2021/07/25 09:49:21;;;;;;;14.78;8.80;;;;;;;27.69;43.74;99733.30;1825695;78;20944;-80
2021/07/25 09:51:50;;;;;;;26.33;11.48;;;;;;;27.68;43.82;99735.13;1834479;77;20940;-82
2021/07/25 09:54:33;;;;;;;10.03;7.45;;;;;;;27.67;44.03;99734.95;1810365;77;20937;-79
2021/07/25 09:57:24;;;;;;;7.75;6.45;;;;;;;27.61;42.06;99737.45;1843879;77;20866;-80
2021/07/25 10:00:13;;;;;;;9.75;6.67;;;;;;;27.42;42.58;99738.11;1840558;77;21104;-79
2021/07/25 10:03:04;;;;;;;10.30;6.80;;;;;;;27.27;42.56;99733.29;1834229;77;20973;-78
2021/07/25 10:05:45;;;;;;;9.10;7.00;;;;;;;27.25;44.67;99736.53;1836257;77;20917;-79
2021/07/25 10:08:19;;;;;;;13.50;7.15;;;;;;;27.33;42.74;99725.95;1843866;77;20846;-80
2021/07/25 10:10:54;;;;;;;9.75;6.25;;;;;;;27.72;43.97;99726.80;1844443;77;20921;-81
2021/07/25 10:13:29;;;;;;;9.23;6.30;;;;;;;28.31;43.62;99723.34;1844191;77;21754;-79
2021/07/25 10:16:13;;;;;;;8.33;6.60;;;;;;;28.75;42.23;99714.22;1843733;77;20944;-79
2021/07/25 10:18:27;;;;;;;8.15;6.33;;;;;;;28.99;40.98;99709.27;1835125;77;20969;-79
2021/07/25 10:21:04;;;;;;;10.32;6.53;;;;;;;29.07;39.95;99717.16;1844075;77;21394;-79
2021/07/25 10:23:52;;;;;;;9.53;6.33;;;;;;;29.23;38.97;99712.97;1844235;77;21448;-79
2021/07/25 10:26:26;;;;;;;9.53;6.08;;;;;;;29.47;40.33;99717.88;1843855;77;21139;-79
2021/07/25 10:28:58;;;;;;;10.20;6.65;;;;;;;29.80;37.54;99711.62;1830999;76;20959;-77
2021/07/25 10:31:33;;;;;;;8.80;6.67;;;;;;;29.95;37.04;99712.67;1795952;79;20864;-77
2021/07/25 10:34:03;;;;;;;11.60;6.55;;;;;;;30.28;37.96;99709.18;1806867;77;21507;-79
2021/07/25 10:36:36;;;;;;;13.43;6.35;;;;;;;30.65;36.32;99709.16;1843847;77;20934;-79
2021/07/25 10:39:06;;;;;;;11.53;6.17;;;;;;;30.97;35.69;99712.48;1811981;77;21566;-79
2021/07/25 10:41:33;;;;;;;9.63;6.17;;;;;;;31.19;35.27;99712.03;1821750;77;20905;-81
2021/07/25 10:44:03;;;;;;;8.18;5.62;;;;;;;31.29;35.21;99718.59;1810775;79;20964;-79
2021/07/25 10:46:37;;;;;;;6.40;5.70;;;;;;;31.48;35.43;99714.75;1824834;77;37823;-81
2021/07/25 10:49:09;;;;;;;6.87;5.62;;;;;;;31.74;35.35;99720.61;1843898;77;20972;-80
2021/07/25 10:51:58;;;;;;;64.05;10.35;;;;;;;31.85;35.49;99717.39;1843675;77;20906;-79
2021/07/25 10:54:30;;;;;;;8.58;5.70;;;;;;;31.84;36.56;99715.80;1812040;77;20903;-81
2021/07/25 10:57:14;;;;;;;7.35;5.65;;;;;;;31.80;36.94;99710.87;1810818;79;20903;-80
2021/07/25 10:59:52;;;;;;;6.78;5.78;;;;;;;31.79;36.02;99711.49;1810907;78;20884;-79
2021/07/25 11:02:29;;;;;;;10.45;6.17;;;;;;;31.94;35.33;99709.59;1810647;79;20967;-80
2021/07/25 11:05:00;;;;;;;8.28;5.70;;;;;;;32.11;36.86;99706.77;1811139;79;21510;-80
2021/07/25 11:07:32;;;;;;;7.53;5.67;;;;;;;32.38;33.15;99703.39;1810934;79;20912;-80
2021/07/25 11:10:12;;;;;;;8.15;6.12;;;;;;;32.48;33.25;99699.38;1810591;79;21539;-79
2021/07/25 11:12:54;;;;;;;9.33;5.97;;;;;;;32.64;33.55;99696.34;1810706;78;21519;-79
2021/07/25 11:15:33;;;;;;;11.70;5.85;;;;;;;32.77;33.89;99698.52;1779636;79;21425;-81
2021/07/25 11:18:12;;;;;;;7.15;5.33;;;;;;;32.97;31.78;99695.92;1842660;77;21164;-81
2021/07/25 11:21:00;;;;;;;10.08;5.53;;;;;;;32.92;31.65;99698.77;1810636;79;20846;-77
2021/07/25 11:23:33;;;;;;;8.05;5.83;;;;;;;32.91;33.38;99689.28;1810992;79;20881;-80
2021/07/25 11:25:58;;;;;;;6.20;5.60;;;;;;;33.05;31.88;99685.86;1810760;79;20917;-78
2021/07/25 11:28:44;;;;;;;7.55;5.97;;;;;;;33.07;30.97;99683.34;1842683;77;20968;-78
2021/07/25 11:31:14;;;;;;;7.95;5.28;;;;;;;33.16;31.37;99686.23;1844046;77;21941;-77
2021/07/25 11:33:47;;;;;;;8.88;6.17;;;;;;;33.39;32.42;99690.63;1843843;77;21448;-78
2021/07/25 11:36:16;;;;;;;8.88;5.70;;;;;;;33.52;29.74;99683.38;1844287;77;21587;-78
2021/07/25 11:38:55;;;;;;;14.07;6.30;;;;;;;33.58;29.01;99687.20;1843955;77;20869;-80
2021/07/25 11:41:28;;;;;;;6.75;5.62;;;;;;;33.55;30.87;99693.20;1844415;77;20822;-77
2021/07/25 11:44:10;;;;;;;8.38;5.25;;;;;;;33.61;30.38;99689.10;1843924;77;21790;-78
2021/07/25 11:46:46;;;;;;;10.05;5.90;;;;;;;33.51;30.37;99691.13;1831561;77;20967;-77
2021/07/25 11:49:24;;;;;;;7.20;5.53;;;;;;;33.08;30.23;99691.41;1838619;77;20973;-77
2021/07/25 11:52:06;;;;;;;10.40;6.20;;;;;;;32.61;31.93;99685.89;1829510;77;21005;-76